CheckWX is a tool to help pilots better visualize weather data.  It is not intended as a substitute for an official pre-flight weather briefing.

16:33:14 UTC

KSGR TAF
Sugar Land Regional Airport
Houston, Texas, USA
KSGR 181128Z 1812/1912 VRB04KT P6SM FEW250 FM190900 13003KT P6SM SCT050 SCT250

Oct-18@
12:00 UTC

Oct-18 @ 12:00 UTC

Oct-19@
09:00 UTC

Oct-19 @ 09:00 UTC

KSGR 181128Z 1812/1912 VRB04KT P6SM FEW250
Wind
  • Variable at 4 KTS
Cloud Levels
  • Few at 25,000' AGL

Oct-19@
09:00 UTC

Oct-19 @ 09:00 UTC

Oct-19@
12:00 UTC

Oct-19 @ 12:00 UTC

FM190900 13003KT P6SM SCT050 SCT250

From

From Standard forecast or significant change

Wind
  • 130° at 3 KTS
Cloud Levels
  • Scattered at 5,000' AGL
  • Scattered at 25,000' AGL